createdAt,value
2023-02-24T00:02:22.274Z,30.70
2023-02-24T00:04:51.929Z,37.97
2023-02-24T00:07:23.542Z,30.17
2023-02-24T00:09:52.923Z,31.30
2023-02-24T00:12:24.548Z,26.60
2023-02-24T00:14:52.866Z,26.70
2023-02-24T00:17:27.817Z,29.47
2023-02-24T00:19:56.100Z,35.27
2023-02-24T00:22:26.894Z,33.30
2023-02-24T00:25:01.675Z,27.10
2023-02-24T00:27:42.841Z,28.27
2023-02-24T00:30:14.890Z,23.23
2023-02-24T00:32:44.620Z,28.83
2023-02-24T00:35:12.539Z,31.60
2023-02-24T00:37:40.352Z,25.30
2023-02-24T00:40:13.201Z,24.30
2023-02-24T00:42:43.107Z,22.30
2023-02-24T00:45:16.766Z,26.17
2023-02-24T00:47:47.510Z,27.70
2023-02-24T00:50:22.519Z,26.07
2023-02-24T00:52:53.380Z,27.63
2023-02-24T00:55:25.419Z,21.63
2023-02-24T00:57:54.913Z,25.73
2023-02-24T01:00:23.611Z,27.93
2023-02-24T01:02:52.885Z,24.87
2023-02-24T01:05:30.120Z,24.37
2023-02-24T01:08:21.700Z,27.30
2023-02-24T01:11:17.306Z,31.10
2023-02-24T01:13:46.200Z,23.53
2023-02-24T01:16:19.726Z,22.87
2023-02-24T01:18:53.427Z,32.37
2023-02-24T01:21:25.094Z,28.87
2023-02-24T01:23:56.157Z,21.30
2023-02-24T01:26:26.152Z,30.87
2023-02-24T01:28:56.445Z,27.10
2023-02-24T01:31:28.792Z,31.73
2023-02-24T01:33:56.818Z,30.20
2023-02-24T01:36:27.810Z,26.50
2023-02-24T01:38:57.991Z,29.73
2023-02-24T01:41:30.797Z,25.27
2023-02-24T01:44:09.738Z,27.17
2023-02-24T01:46:39.000Z,29.17
2023-02-24T01:49:09.984Z,27.03
2023-02-24T01:51:44.970Z,32.90
2023-02-24T01:54:17.126Z,25.70
2023-02-24T01:56:48.326Z,28.77
2023-02-24T01:59:19.946Z,28.50
2023-02-24T02:01:48.598Z,28.73
2023-02-24T02:04:36.566Z,31.40
2023-02-24T02:07:04.908Z,27.80
2023-02-24T02:09:34.196Z,28.20
2023-02-24T02:12:09.534Z,29.87
2023-02-24T02:14:50.157Z,36.30
2023-02-24T02:17:26.600Z,39.13
2023-02-24T02:20:16.856Z,34.53
2023-02-24T02:23:06.850Z,28.30
2023-02-24T02:25:49.675Z,32.60
2023-02-24T02:28:38.603Z,34.67
2023-02-24T02:31:46.768Z,34.10
2023-02-24T02:34:23.747Z,34.50
2023-02-24T02:37:02.740Z,34.67
2023-02-24T02:39:48.921Z,40.10
2023-02-24T02:42:28.163Z,33.10
2023-02-24T02:45:05.198Z,35.33
2023-02-24T02:47:37.099Z,29.30
2023-02-24T02:50:12.019Z,32.97
2023-02-24T02:52:42.637Z,37.53
2023-02-24T02:55:14.115Z,37.07
2023-02-24T02:57:48.422Z,34.47
2023-02-24T03:00:21.548Z,32.00
2023-02-24T03:02:55.409Z,41.80
2023-02-24T03:05:37.323Z,33.03
2023-02-24T03:08:12.252Z,34.27
2023-02-24T03:10:44.770Z,41.13
2023-02-24T03:13:16.827Z,35.00
2023-02-24T03:15:45.910Z,36.93
2023-02-24T03:18:19.175Z,39.80
2023-02-24T03:20:52.898Z,36.07
2023-02-24T03:23:27.061Z,33.87
2023-02-24T03:26:00.096Z,32.50
2023-02-24T03:28:37.440Z,42.40
2023-02-24T03:31:18.725Z,34.93
2023-02-24T03:33:51.864Z,35.93
2023-02-24T03:36:23.371Z,33.57
2023-02-24T03:38:58.333Z,35.23
2023-02-24T03:41:30.438Z,40.63
2023-02-24T03:43:59.813Z,58.63
2023-02-24T03:46:30.439Z,51.03
2023-02-24T03:49:08.702Z,44.07
2023-02-24T03:51:44.896Z,37.33
2023-02-24T03:54:21.137Z,45.17
2023-02-24T03:57:00.095Z,39.30
2023-02-24T03:59:39.958Z,42.23
2023-02-24T04:02:14.370Z,39.93
2023-02-24T04:04:46.500Z,41.43
2023-02-24T04:07:18.889Z,36.00
2023-02-24T04:09:51.943Z,37.23
2023-02-24T04:12:25.595Z,45.47
2023-02-24T04:14:57.937Z,42.77
2023-02-24T04:17:28.602Z,38.97
2023-02-24T04:20:02.637Z,48.07
2023-02-24T04:22:42.616Z,40.00
2023-02-24T04:25:15.822Z,42.13
2023-02-24T04:27:44.883Z,32.73
2023-02-24T04:30:21.745Z,38.77
2023-02-24T04:32:54.329Z,40.10
2023-02-24T04:35:25.395Z,40.10
2023-02-24T04:37:58.046Z,42.13
2023-02-24T04:40:28.961Z,40.53
2023-02-24T04:42:57.222Z,38.83
2023-02-24T04:45:31.966Z,44.93
2023-02-24T04:48:03.990Z,46.57
2023-02-24T04:50:34.077Z,49.03
2023-02-24T04:53:09.187Z,43.93
2023-02-24T04:55:49.934Z,46.70
2023-02-24T04:58:20.694Z,62.87
2023-02-24T05:00:52.761Z,51.17
2023-02-24T05:03:28.637Z,39.73
2023-02-24T05:06:00.324Z,51.47
2023-02-24T05:08:32.327Z,45.23
2023-02-24T05:11:05.195Z,43.30
2023-02-24T05:13:34.423Z,40.73
2023-02-24T05:16:09.465Z,46.67
2023-02-24T05:18:40.958Z,41.37
2023-02-24T05:21:30.887Z,50.10
2023-02-24T05:24:04.663Z,46.83
2023-02-24T05:26:33.999Z,46.97
2023-02-24T05:29:06.832Z,39.30
2023-02-24T05:31:34.923Z,38.77
2023-02-24T05:34:03.926Z,45.73
2023-02-24T05:36:33.863Z,42.60
2023-02-24T05:39:07.477Z,44.97
2023-02-24T05:41:39.208Z,40.23
2023-02-24T05:44:10.438Z,39.07
2023-02-24T05:46:41.585Z,32.43
2023-02-24T05:49:14.504Z,40.07
2023-02-24T05:51:47.245Z,36.50
2023-02-24T05:54:24.157Z,40.47
2023-02-24T05:56:54.648Z,53.73
2023-02-24T05:59:23.259Z,34.10
2023-02-24T06:01:53.770Z,34.50
2023-02-24T06:04:39.667Z,50.93
2023-02-24T06:07:09.176Z,38.40
2023-02-24T06:09:40.815Z,32.33
2023-02-24T06:12:09.188Z,45.83
2023-02-24T06:14:37.623Z,30.33
2023-02-24T06:17:06.729Z,37.83
2023-02-24T06:19:38.629Z,41.83
2023-02-24T06:22:10.892Z,40.03
2023-02-24T06:24:44.206Z,47.53
2023-02-24T06:27:17.910Z,37.63
2023-02-24T06:29:50.091Z,44.43
2023-02-24T06:32:23.512Z,50.30
2023-02-24T06:34:54.611Z,47.13
2023-02-24T06:37:24.160Z,51.07
2023-02-24T06:39:53.946Z,47.73
2023-02-24T06:42:22.079Z,49.80
2023-02-24T06:44:50.446Z,43.93
2023-02-24T06:47:19.700Z,51.13
2023-02-24T06:49:48.617Z,44.63
2023-02-24T06:52:19.316Z,52.83
2023-02-24T06:54:50.719Z,48.43
2023-02-24T06:57:23.705Z,49.60
2023-02-24T06:59:52.380Z,54.77
2023-02-24T07:02:20.525Z,38.80
2023-02-24T07:04:51.765Z,41.17
2023-02-24T07:07:19.918Z,44.63
2023-02-24T07:09:48.227Z,49.63
2023-02-24T07:12:21.274Z,58.97
2023-02-24T07:14:51.338Z,53.97
2023-02-24T07:17:22.299Z,51.50
2023-02-24T07:19:50.233Z,52.20
2023-02-24T07:22:25.566Z,50.10
2023-02-24T07:25:00.662Z,45.97
2023-02-24T07:27:28.955Z,51.10
2023-02-24T07:30:01.559Z,51.63
2023-02-24T07:32:31.226Z,44.43
2023-02-24T07:34:59.660Z,50.37
2023-02-24T07:37:31.924Z,39.90
2023-02-24T07:39:59.826Z,45.37
2023-02-24T07:42:30.788Z,45.27
2023-02-24T07:45:00.549Z,45.27
2023-02-24T07:47:29.421Z,52.33
2023-02-24T07:49:57.294Z,46.83
2023-02-24T07:52:28.247Z,38.37
2023-02-24T07:54:56.215Z,44.73
2023-02-24T07:57:25.213Z,37.90
2023-02-24T07:59:57.690Z,35.17
2023-02-24T08:02:30.239Z,45.23
2023-02-24T08:05:03.264Z,39.77
2023-02-24T08:07:33.409Z,38.43
2023-02-24T08:10:25.396Z,37.07
2023-02-24T08:13:03.500Z,31.43
2023-02-24T08:15:34.552Z,31.73
2023-02-24T08:18:06.765Z,29.13
2023-02-24T08:20:52.504Z,33.57
2023-02-24T08:23:23.650Z,31.23
2023-02-24T08:25:51.894Z,30.97
2023-02-24T08:28:19.984Z,26.90
2023-02-24T08:30:56.985Z,30.67
2023-02-24T08:33:30.225Z,25.30
2023-02-24T08:36:02.708Z,26.90
2023-02-24T08:38:41.925Z,29.77
2023-02-24T08:41:19.124Z,28.47
2023-02-24T08:43:51.497Z,25.43
2023-02-24T08:46:28.737Z,27.20
2023-02-24T08:49:00.888Z,23.97
2023-02-24T08:51:43.815Z,22.10
2023-02-24T08:54:15.648Z,29.43
2023-02-24T08:56:50.246Z,25.00
2023-02-24T08:59:38.855Z,23.47
2023-02-24T09:02:24.702Z,18.00
2023-02-24T09:04:56.146Z,20.23
2023-02-24T09:07:28.878Z,23.17
2023-02-24T09:09:57.547Z,23.90
2023-02-24T09:12:32.941Z,26.00
2023-02-24T09:15:06.372Z,26.10
2023-02-24T09:17:52.227Z,19.07
2023-02-24T09:20:41.319Z,23.23
2023-02-24T09:23:25.152Z,25.03
2023-02-24T09:25:54.375Z,21.33
2023-02-24T09:28:26.924Z,20.60
2023-02-24T09:30:59.386Z,30.53
2023-02-24T09:33:29.094Z,24.10
2023-02-24T09:36:10.931Z,17.40
2023-02-24T09:39:00.013Z,20.67
2023-02-24T09:41:33.442Z,23.50
2023-02-24T09:44:08.636Z,21.43
2023-02-24T09:46:54.377Z,27.83
2023-02-24T09:49:26.313Z,25.93
2023-02-24T09:52:00.926Z,18.73
2023-02-24T09:54:36.379Z,19.10
2023-02-24T09:57:10.700Z,22.60
2023-02-24T10:00:01.348Z,18.77
2023-02-24T10:02:44.216Z,25.60
2023-02-24T10:05:24.935Z,26.30
2023-02-24T10:08:00.132Z,21.37
2023-02-24T10:10:35.909Z,26.33
2023-02-24T10:13:14.915Z,25.40
2023-02-24T10:16:07.319Z,22.57
2023-02-24T10:18:41.907Z,23.00
2023-02-24T10:21:21.116Z,23.13
2023-02-24T10:24:03.626Z,26.13
2023-02-24T10:26:59.547Z,30.67
2023-02-24T10:29:50.934Z,22.80
2023-02-24T10:32:34.698Z,30.40
2023-02-24T10:35:16.510Z,29.13
2023-02-24T10:37:44.985Z,33.03
2023-02-24T10:40:26.499Z,33.30
2023-02-24T10:43:10.767Z,42.57
2023-02-24T10:45:50.862Z,30.80
2023-02-24T10:48:40.299Z,29.20
2023-02-24T10:51:20.101Z,31.03
2023-02-24T10:54:09.684Z,41.13
2023-02-24T10:56:59.309Z,33.33
2023-02-24T10:59:58.670Z,32.37
2023-02-24T11:02:33.146Z,30.00
2023-02-24T11:05:27.065Z,31.47
2023-02-24T11:08:12.478Z,25.13
2023-02-24T11:10:58.762Z,29.53
2023-02-24T11:13:45.791Z,26.57
2023-02-24T11:16:31.070Z,33.87
2023-02-24T11:19:07.224Z,24.57
2023-02-24T11:21:38.928Z,27.27
2023-02-24T11:24:12.682Z,23.30
2023-02-24T11:26:46.255Z,27.03
2023-02-24T11:29:38.147Z,26.53
2023-02-24T11:32:18.396Z,27.20
2023-02-24T11:34:52.806Z,26.87
2023-02-24T11:37:34.686Z,24.73
2023-02-24T11:40:05.658Z,28.23
2023-02-24T11:42:38.808Z,35.80
2023-02-24T11:45:18.789Z,24.87
2023-02-24T11:47:54.032Z,22.20
2023-02-24T11:50:31.127Z,31.87
2023-02-24T11:53:01.387Z,22.17
2023-02-24T11:55:36.202Z,26.50
2023-02-24T11:58:08.666Z,30.33
2023-02-24T12:00:40.366Z,25.37
2023-02-24T12:03:19.367Z,34.17
2023-02-24T12:05:51.664Z,24.83
2023-02-24T12:08:28.388Z,18.20
2023-02-24T12:11:07.526Z,24.57
2023-02-24T12:13:40.713Z,22.70
2023-02-24T12:16:16.964Z,24.03
2023-02-24T12:18:48.037Z,25.47
2023-02-24T12:21:22.906Z,31.70
2023-02-24T12:23:53.832Z,20.67
2023-02-24T12:26:27.238Z,21.67
2023-02-24T12:29:11.004Z,25.13
2023-02-24T12:31:53.859Z,23.27
2023-02-24T12:34:39.326Z,19.40
2023-02-24T12:37:26.171Z,18.77
2023-02-24T12:40:03.451Z,23.13
2023-02-24T12:42:39.517Z,26.67
2023-02-24T12:45:13.612Z,15.47
2023-02-24T12:47:58.262Z,21.87
2023-02-24T12:50:34.108Z,16.37
2023-02-24T12:53:07.682Z,16.23
2023-02-24T12:55:46.985Z,15.40
2023-02-24T12:58:19.154Z,12.10
2023-02-24T13:00:59.530Z,13.07
2023-02-24T13:03:39.451Z,11.40
2023-02-24T13:06:14.133Z,15.67
2023-02-24T13:08:56.770Z,14.80
2023-02-24T13:11:33.834Z,12.70
2023-02-24T13:14:05.292Z,12.80
2023-02-24T13:16:39.726Z,16.07
2023-02-24T13:19:20.909Z,15.63
2023-02-24T13:22:03.328Z,12.57
2023-02-24T13:24:31.277Z,15.67
2023-02-24T13:27:08.916Z,13.73
2023-02-24T13:29:45.268Z,13.43
2023-02-24T13:32:32.863Z,16.17
2023-02-24T13:35:05.448Z,19.83
2023-02-24T13:37:36.718Z,16.83
2023-02-24T13:40:24.405Z,18.80
2023-02-24T13:43:01.455Z,25.17
2023-02-24T13:45:33.677Z,18.90
2023-02-24T13:48:17.813Z,21.37
2023-02-24T13:50:59.500Z,15.70
2023-02-24T13:53:51.142Z,16.47
2023-02-24T13:56:42.188Z,17.80
2023-02-24T13:59:21.842Z,17.63
2023-02-24T14:02:01.229Z,17.10
2023-02-24T14:04:32.814Z,18.53
2023-02-24T14:07:05.324Z,14.67
2023-02-24T14:09:35.718Z,17.10
2023-02-24T14:12:07.227Z,22.53
2023-02-24T14:14:36.525Z,14.17
2023-02-24T14:17:10.358Z,10.63
2023-02-24T14:19:39.158Z,10.90
2023-02-24T14:22:20.977Z,12.10
2023-02-24T14:24:55.323Z,14.57
2023-02-24T14:27:26.567Z,16.00
2023-02-24T14:29:55.276Z,9.33
2023-02-24T14:32:25.243Z,12.93
2023-02-24T14:34:54.783Z,18.63
2023-02-24T14:37:31.952Z,14.70
2023-02-24T14:40:05.949Z,17.93
2023-02-24T14:42:34.486Z,17.80
2023-02-24T14:45:06.294Z,18.30
2023-02-24T14:47:43.165Z,13.43
2023-02-24T14:50:20.520Z,21.60
2023-02-24T14:52:53.156Z,16.77
2023-02-24T14:55:28.086Z,16.40
2023-02-24T14:58:00.303Z,14.87
2023-02-24T15:00:31.565Z,13.23
2023-02-24T15:03:05.821Z,20.50
2023-02-24T15:05:44.646Z,13.27
2023-02-24T15:08:37.443Z,16.73
2023-02-24T15:11:12.425Z,16.43
2023-02-24T15:13:44.439Z,19.77
2023-02-24T15:16:15.847Z,15.60
2023-02-24T15:18:43.952Z,22.17
2023-02-24T15:21:21.191Z,21.70
2023-02-24T15:24:19.014Z,18.87
2023-02-24T15:26:56.863Z,21.17
2023-02-24T15:29:27.125Z,21.00
2023-02-24T15:31:56.140Z,18.87
2023-02-24T15:34:26.511Z,20.40
2023-02-24T15:36:59.025Z,18.23
2023-02-24T15:39:33.435Z,18.70
2023-02-24T15:42:08.544Z,15.30
2023-02-24T15:44:37.099Z,21.00
2023-02-24T15:47:20.736Z,19.10
2023-02-24T15:49:48.545Z,22.10
2023-02-24T15:52:23.283Z,19.13
2023-02-24T15:54:58.052Z,20.03
2023-02-24T15:57:27.900Z,14.40
2023-02-24T15:59:55.752Z,17.23
2023-02-24T16:02:24.609Z,19.20
2023-02-24T16:04:53.346Z,24.00
2023-02-24T16:07:26.306Z,17.10
2023-02-24T16:09:58.296Z,24.70
2023-02-24T16:12:34.867Z,25.73
2023-02-24T16:15:04.430Z,23.53
2023-02-24T16:17:37.979Z,20.93
2023-02-24T16:20:09.342Z,18.40
2023-02-24T16:22:37.287Z,18.73
2023-02-24T16:25:07.597Z,26.20
2023-02-24T16:27:37.754Z,22.80
2023-02-24T16:30:07.337Z,28.13
2023-02-24T16:32:35.617Z,21.50
2023-02-24T16:35:05.733Z,22.53
2023-02-24T16:37:36.184Z,29.83
2023-02-24T16:40:10.609Z,28.93
2023-02-24T16:42:40.483Z,25.77
2023-02-24T16:45:14.383Z,19.33
2023-02-24T16:47:43.121Z,24.50
2023-02-24T16:50:19.915Z,18.17
2023-02-24T16:52:47.842Z,18.20
2023-02-24T16:55:18.909Z,18.77
2023-02-24T16:57:48.844Z,21.20
2023-02-24T17:00:18.376Z,19.57
2023-02-24T17:02:50.178Z,21.80
2023-02-24T17:05:20.420Z,22.37
2023-02-24T17:07:49.314Z,24.83
2023-02-24T17:10:17.807Z,17.90
2023-02-24T17:12:46.342Z,19.00
2023-02-24T17:15:17.518Z,19.13
2023-02-24T17:17:47.728Z,17.83
2023-02-24T17:20:17.402Z,21.33
2023-02-24T17:22:45.830Z,17.33
2023-02-24T17:25:22.456Z,12.90
2023-02-24T17:27:53.375Z,16.10
2023-02-24T17:30:26.992Z,16.23
2023-02-24T17:32:55.350Z,11.97
2023-02-24T17:35:24.139Z,10.47
2023-02-24T17:37:56.628Z,13.93
2023-02-24T17:40:24.930Z,11.50
2023-02-24T17:42:53.021Z,12.07
2023-02-24T17:45:28.409Z,12.73
2023-02-24T17:48:07.150Z,17.10
2023-02-24T17:50:40.573Z,10.83
2023-02-24T17:53:10.675Z,19.03
2023-02-24T17:56:01.119Z,11.57
2023-02-24T17:58:34.789Z,14.20
2023-02-24T18:01:07.739Z,11.30
2023-02-24T18:03:36.781Z,15.90
2023-02-24T18:06:10.516Z,12.40
2023-02-24T18:08:41.674Z,9.33
2023-02-24T18:11:13.372Z,16.97
2023-02-24T18:13:41.161Z,12.53
2023-02-24T18:16:12.953Z,14.17
2023-02-24T18:18:41.178Z,18.83
2023-02-24T18:21:10.877Z,17.93
2023-02-24T18:23:41.813Z,15.27
2023-02-24T18:26:16.717Z,12.60
2023-02-24T18:28:44.519Z,19.43
2023-02-24T18:31:16.328Z,15.40
2023-02-24T18:33:44.674Z,14.10
2023-02-24T18:36:13.431Z,21.60
2023-02-24T18:38:41.749Z,17.20
2023-02-24T18:41:12.411Z,18.33
2023-02-24T18:43:42.868Z,18.60
2023-02-24T18:46:18.633Z,17.80
2023-02-24T18:48:49.833Z,17.70
2023-02-24T18:51:19.739Z,16.90
2023-02-24T18:53:48.517Z,16.90
2023-02-24T18:56:21.893Z,20.27
2023-02-24T18:58:51.540Z,19.60
2023-02-24T19:01:33.261Z,19.17
2023-02-24T19:04:04.395Z,27.67
2023-02-24T19:06:47.164Z,20.43
2023-02-24T19:09:15.308Z,19.33
2023-02-24T19:11:43.480Z,17.50
2023-02-24T19:14:15.940Z,23.10
2023-02-24T19:16:45.705Z,20.37
2023-02-24T19:19:14.864Z,20.83
2023-02-24T19:21:46.184Z,21.97
2023-02-24T19:24:14.564Z,21.47
2023-02-24T19:26:47.650Z,14.40
2023-02-24T19:29:17.557Z,25.03
2023-02-24T19:31:47.124Z,19.27
2023-02-24T19:34:16.159Z,18.37
2023-02-24T19:36:50.763Z,21.47
2023-02-24T19:39:18.953Z,25.20
2023-02-24T19:41:54.486Z,23.33
2023-02-24T19:44:22.683Z,23.13
2023-02-24T19:46:55.250Z,19.40
2023-02-24T19:49:25.937Z,16.60
2023-02-24T19:51:55.049Z,19.47
2023-02-24T19:54:25.705Z,20.07
2023-02-24T19:56:57.163Z,20.93
2023-02-24T19:59:25.474Z,16.93
2023-02-24T20:01:55.262Z,23.30
2023-02-24T20:04:40.524Z,19.63
2023-02-24T20:07:11.838Z,21.13
2023-02-24T20:09:42.106Z,23.60
2023-02-24T20:12:12.692Z,20.37
2023-02-24T20:14:41.225Z,20.23
2023-02-24T20:17:15.310Z,21.33
2023-02-24T20:19:43.665Z,23.30
2023-02-24T20:22:13.560Z,22.83
2023-02-24T20:24:42.812Z,18.57
2023-02-24T20:27:12.294Z,21.23
2023-02-24T20:29:41.606Z,21.63
2023-02-24T20:32:11.537Z,40.67
2023-02-24T20:34:40.122Z,17.90
2023-02-24T20:37:08.092Z,23.13
2023-02-24T20:39:44.230Z,22.90
2023-02-24T20:42:12.528Z,26.53
2023-02-24T20:44:45.074Z,29.63
2023-02-24T20:47:21.770Z,22.07
2023-02-24T20:49:52.736Z,26.23
2023-02-24T20:52:20.619Z,21.60
2023-02-24T20:54:49.496Z,21.20
2023-02-24T20:57:17.762Z,19.17
2023-02-24T21:00:01.492Z,20.53
2023-02-24T21:02:32.610Z,19.40
2023-02-24T21:05:03.178Z,20.67
2023-02-24T21:07:32.746Z,20.13
2023-02-24T21:10:00.736Z,24.57
2023-02-24T21:12:28.679Z,18.90
2023-02-24T21:14:57.705Z,18.83
2023-02-24T21:17:25.682Z,20.90
2023-02-24T21:19:56.794Z,21.47
2023-02-24T21:22:27.223Z,23.17
2023-02-24T21:24:58.162Z,22.33
2023-02-24T21:27:27.450Z,9.17
2023-02-24T21:29:57.320Z,8.70
2023-02-24T21:32:28.011Z,9.03
2023-02-24T21:35:05.082Z,7.10
2023-02-24T21:37:35.171Z,6.30
2023-02-24T21:40:10.871Z,10.47
2023-02-24T21:42:47.669Z,6.17
2023-02-24T21:45:21.448Z,5.30
2023-02-24T21:47:49.611Z,5.97
2023-02-24T21:50:21.760Z,4.47
2023-02-24T21:52:52.064Z,7.57
2023-02-24T21:55:23.502Z,10.07
2023-02-24T21:57:53.966Z,8.20
2023-02-24T22:00:24.196Z,7.00
2023-02-24T22:02:54.471Z,8.37
2023-02-24T22:05:25.368Z,6.33
2023-02-24T22:07:54.322Z,4.80
2023-02-24T22:10:24.252Z,6.63
2023-02-24T22:12:55.229Z,7.20
2023-02-24T22:15:24.266Z,7.33
2023-02-24T22:17:54.486Z,5.37
2023-02-24T22:20:23.824Z,5.43
2023-02-24T22:22:51.729Z,7.97
2023-02-24T22:25:20.710Z,12.97
2023-02-24T22:27:48.689Z,14.67
2023-02-24T22:30:16.617Z,8.93
2023-02-24T22:32:47.301Z,14.87
2023-02-24T22:35:17.683Z,8.20
2023-02-24T22:37:46.976Z,5.97
2023-02-24T22:40:20.807Z,7.20
2023-02-24T22:42:51.736Z,10.77
2023-02-24T22:45:20.821Z,10.80
2023-02-24T22:47:48.725Z,10.33
2023-02-24T22:50:16.986Z,9.13
2023-02-24T22:52:48.974Z,5.50
2023-02-24T22:55:24.082Z,9.93
2023-02-24T22:57:58.174Z,9.57
2023-02-24T23:00:26.332Z,8.43
2023-02-24T23:02:54.133Z,6.90
2023-02-24T23:05:22.489Z,12.13
2023-02-24T23:07:51.673Z,10.13
2023-02-24T23:10:19.653Z,8.73
2023-02-24T23:12:48.744Z,14.07
2023-02-24T23:15:20.131Z,8.57
2023-02-24T23:17:51.451Z,6.87
2023-02-24T23:20:20.133Z,7.67
2023-02-24T23:23:05.601Z,8.10
2023-02-24T23:25:36.372Z,11.70
2023-02-24T23:28:05.270Z,9.30
2023-02-24T23:30:43.451Z,6.13
2023-02-24T23:33:12.260Z,6.27
2023-02-24T23:35:46.495Z,7.97
2023-02-24T23:38:18.467Z,4.60
2023-02-24T23:40:50.433Z,7.87
2023-02-24T23:43:23.804Z,7.20
2023-02-24T23:45:51.612Z,6.43
2023-02-24T23:48:24.986Z,6.40
2023-02-24T23:50:57.220Z,8.90
2023-02-24T23:53:26.645Z,8.00
2023-02-24T23:55:54.557Z,7.53
2023-02-24T23:58:26.593Z,8.30
